createdAt,value
2018-06-12T00:02:20.503Z,17.50
2018-06-12T00:04:48.774Z,17.50
2018-06-12T00:07:17.016Z,17.60
2018-06-12T00:12:13.287Z,17.30
2018-06-12T00:14:41.574Z,17.50
2018-06-12T00:17:09.845Z,17.60
2018-06-12T00:19:38.101Z,17.30
2018-06-12T00:22:06.375Z,17.30
2018-06-12T00:24:34.665Z,17.20
2018-06-12T00:27:02.926Z,17.20
2018-06-12T00:31:59.209Z,17.20
2018-06-12T00:34:27.467Z,17.20
2018-06-12T00:36:55.726Z,17.10
2018-06-12T00:39:24.037Z,17.00
2018-06-12T00:41:52.307Z,17.10
2018-06-12T00:44:20.605Z,17.20
2018-06-12T00:46:48.871Z,17.30
2018-06-12T00:49:17.159Z,17.20
2018-06-12T00:51:45.377Z,17.00
2018-06-12T00:54:13.687Z,16.90
2018-06-12T00:56:53.334Z,16.80
2018-06-12T00:59:21.608Z,16.90
2018-06-12T01:01:50.819Z,16.70
2018-06-12T01:04:19.073Z,16.70
2018-06-12T01:06:47.310Z,16.60
2018-06-12T01:09:15.554Z,16.60
2018-06-12T01:11:43.785Z,16.60
2018-06-12T01:14:12.033Z,16.60
2018-06-12T01:16:40.279Z,16.60
2018-06-12T01:19:08.530Z,16.60
2018-06-12T01:21:36.770Z,16.50
2018-06-12T01:24:04.981Z,16.40
2018-06-12T01:26:33.270Z,16.50
2018-06-12T01:29:01.555Z,16.50
2018-06-12T01:31:29.827Z,16.50
2018-06-12T01:33:58.100Z,16.50
2018-06-12T01:36:26.362Z,16.40
2018-06-12T01:38:54.648Z,16.50
2018-06-12T01:41:23.006Z,16.50
2018-06-12T01:43:51.262Z,16.40
2018-06-12T01:46:19.491Z,16.30
2018-06-12T01:48:47.734Z,16.20
2018-06-12T01:53:43.977Z,16.20
2018-06-12T01:58:40.253Z,16.30
2018-06-12T02:01:08.538Z,16.40
2018-06-12T02:03:36.765Z,16.50
2018-06-12T02:08:33.041Z,16.20
2018-06-12T02:11:01.305Z,16.30
2018-06-12T02:13:29.587Z,16.40
2018-06-12T02:15:57.870Z,16.30
2018-06-12T02:18:26.187Z,16.30
2018-06-12T02:20:54.410Z,16.30
2018-06-12T02:23:22.654Z,16.20
2018-06-12T02:25:50.925Z,16.30
2018-06-12T02:28:19.149Z,16.20
2018-06-12T02:30:47.421Z,16.20
2018-06-12T02:33:15.698Z,16.20
2018-06-12T02:35:43.970Z,16.10
2018-06-12T02:38:12.169Z,16.10
2018-06-12T02:40:40.407Z,16.10
2018-06-12T02:45:36.770Z,16.20
2018-06-12T02:48:05.026Z,16.10
2018-06-12T02:53:01.286Z,16.10
2018-06-12T02:55:29.527Z,16.00
2018-06-12T02:57:57.807Z,16.00
2018-06-12T03:00:26.066Z,16.00
2018-06-12T03:02:54.338Z,16.00
2018-06-12T03:05:22.580Z,16.00
2018-06-12T03:07:50.853Z,16.00
2018-06-12T03:10:19.097Z,16.10
2018-06-12T03:12:47.349Z,16.00
2018-06-12T03:15:15.659Z,16.00
2018-06-12T03:22:39.889Z,16.00
2018-06-12T03:25:08.163Z,15.90
2018-06-12T03:27:36.447Z,15.90
2018-06-12T03:30:04.814Z,15.80
2018-06-12T03:32:33.079Z,15.80
2018-06-12T03:37:29.287Z,15.80
2018-06-12T03:39:57.510Z,15.80
2018-06-12T03:42:25.790Z,15.60
2018-06-12T03:47:22.042Z,15.50
2018-06-12T03:49:50.318Z,15.50
2018-06-12T03:52:23.825Z,15.50
2018-06-12T03:54:52.165Z,15.50
2018-06-12T03:57:20.386Z,15.40
2018-06-12T03:59:48.611Z,15.40
2018-06-12T04:02:16.866Z,15.40
2018-06-12T04:04:45.090Z,15.40
2018-06-12T04:07:13.342Z,15.40
2018-06-12T04:09:41.598Z,15.30
2018-06-12T04:12:09.880Z,15.30
2018-06-12T04:14:38.093Z,15.30
2018-06-12T04:19:34.318Z,15.40
2018-06-12T04:22:02.607Z,15.30
2018-06-12T04:24:30.874Z,15.40
2018-06-12T04:26:59.969Z,15.40
2018-06-12T04:29:28.245Z,15.40
2018-06-12T04:31:56.530Z,15.40
2018-06-12T04:34:24.831Z,15.30
2018-06-12T04:36:53.110Z,15.40
2018-06-12T04:39:21.375Z,15.40
2018-06-12T04:44:17.615Z,15.40
2018-06-12T04:46:45.877Z,15.50
2018-06-12T04:49:14.113Z,15.40
2018-06-12T04:51:42.341Z,15.50
2018-06-12T04:54:10.619Z,15.50
2018-06-12T04:59:06.906Z,15.50
2018-06-12T05:01:35.133Z,15.50
2018-06-12T05:06:31.412Z,15.50
2018-06-12T05:08:59.650Z,15.50
2018-06-12T05:13:55.806Z,15.50
2018-06-12T05:16:24.089Z,15.70
2018-06-12T05:18:52.355Z,15.90
2018-06-12T05:26:16.535Z,15.80
2018-06-12T05:28:44.818Z,15.90
2018-06-12T05:31:13.074Z,16.10
2018-06-12T05:33:41.323Z,16.00
2018-06-12T05:36:09.554Z,15.70
2018-06-12T05:38:37.845Z,15.70
2018-06-12T05:41:06.122Z,15.70
2018-06-12T05:46:02.444Z,15.50
2018-06-12T05:48:30.758Z,15.50
2018-06-12T05:50:59.014Z,15.60
2018-06-12T05:53:27.294Z,15.70
2018-06-12T05:58:23.543Z,15.40
2018-06-12T06:05:47.766Z,15.20
2018-06-12T06:08:16.019Z,15.20
2018-06-12T06:10:44.279Z,15.30
2018-06-12T06:13:12.485Z,15.20
2018-06-12T06:18:08.727Z,15.20
2018-06-12T06:20:36.965Z,15.10
2018-06-12T06:23:05.271Z,15.20
2018-06-12T06:25:33.536Z,15.30
2018-06-12T06:28:01.862Z,15.30
2018-06-12T06:30:30.090Z,15.20
2018-06-12T06:32:58.354Z,15.20
2018-06-12T06:35:26.611Z,15.30
2018-06-12T06:37:54.850Z,15.20
2018-06-12T06:40:23.092Z,15.20
2018-06-12T06:42:51.338Z,15.30
2018-06-12T06:45:19.659Z,15.20
2018-06-12T06:47:47.945Z,15.20
2018-06-12T06:50:16.187Z,15.30
2018-06-12T06:52:44.444Z,15.40
2018-06-12T06:55:12.666Z,15.40
2018-06-12T06:57:40.957Z,15.50
2018-06-12T07:02:37.253Z,15.60
2018-06-12T07:05:05.477Z,15.10
2018-06-12T07:10:01.715Z,15.10
2018-06-12T07:12:30.012Z,15.10
2018-06-12T07:14:58.302Z,15.10
2018-06-12T07:17:26.557Z,15.10
2018-06-12T07:22:22.858Z,15.20
2018-06-12T07:24:51.158Z,15.30
2018-06-12T07:27:19.422Z,15.40
2018-06-12T07:29:47.725Z,15.50
2018-06-12T07:34:44.066Z,15.30
2018-06-12T07:37:12.322Z,15.30
2018-06-12T07:39:40.589Z,15.30
2018-06-12T07:42:08.875Z,15.40
2018-06-12T07:44:37.179Z,15.40
2018-06-12T07:47:05.443Z,15.40
2018-06-12T07:49:33.720Z,15.10
2018-06-12T07:52:01.953Z,15.20
2018-06-12T07:54:30.226Z,15.10
2018-06-12T07:56:58.453Z,15.00
2018-06-12T07:59:26.695Z,14.80
2018-06-12T08:02:01.213Z,14.70
2018-06-12T08:07:05.868Z,14.70
2018-06-12T08:09:34.103Z,14.70
2018-06-12T08:12:02.334Z,14.80
2018-06-12T08:14:30.666Z,14.80
2018-06-12T08:16:58.932Z,14.60
2018-06-12T08:19:27.176Z,14.50
2018-06-12T08:21:57.629Z,14.50
2018-06-12T08:24:31.432Z,14.50
2018-06-12T08:27:01.310Z,14.50
2018-06-12T08:29:29.579Z,14.70
2018-06-12T08:31:57.843Z,14.60
2018-06-12T08:34:26.131Z,14.60
2018-06-12T08:36:54.440Z,14.70
2018-06-12T08:41:51.659Z,14.70
2018-06-12T08:44:19.907Z,14.80
2018-06-12T08:46:52.391Z,14.90
2018-06-12T08:49:31.004Z,14.70
2018-06-12T08:52:01.991Z,14.60
2018-06-12T08:54:30.302Z,14.40
2018-06-12T08:57:02.656Z,14.50
2018-06-12T08:59:33.691Z,14.70
2018-06-12T09:04:30.310Z,15.30
2018-06-12T09:06:58.533Z,15.10
2018-06-12T09:11:54.659Z,15.10
2018-06-12T09:14:22.834Z,15.10
2018-06-12T09:16:51.018Z,15.00
2018-06-12T09:19:19.181Z,15.10
2018-06-12T09:21:47.371Z,15.00
2018-06-12T09:24:15.537Z,15.20
2018-06-12T09:26:43.705Z,15.10
2018-06-12T09:29:11.873Z,15.10
2018-06-12T09:31:40.091Z,15.30
2018-06-12T09:34:08.270Z,15.50
2018-06-12T09:36:36.454Z,15.60
2018-06-12T09:39:07.836Z,15.60
2018-06-12T09:41:36.086Z,15.80
2018-06-12T09:44:04.267Z,15.90
2018-06-12T09:46:32.433Z,15.70
2018-06-12T09:49:00.637Z,15.60
2018-06-12T09:51:28.762Z,16.00
2018-06-12T09:53:56.933Z,15.90
2018-06-12T09:56:25.136Z,15.80
2018-06-12T09:58:53.330Z,16.00
2018-06-12T10:01:22.173Z,15.80
2018-06-12T10:03:52.353Z,15.90
2018-06-12T10:06:20.599Z,16.00
2018-06-12T10:08:48.770Z,15.80
2018-06-12T10:11:16.959Z,16.20
2018-06-12T10:13:45.129Z,16.60
2018-06-12T10:16:13.329Z,16.70
2018-06-12T10:18:41.518Z,16.50
2018-06-12T10:21:09.715Z,16.20
2018-06-12T10:23:37.916Z,15.80
2018-06-12T10:26:06.102Z,15.90
2018-06-12T10:28:34.317Z,15.70
2018-06-12T10:31:02.522Z,15.70
2018-06-12T10:33:30.763Z,15.80
2018-06-12T10:35:59.003Z,16.30
2018-06-12T10:38:27.217Z,16.50
2018-06-12T10:40:55.515Z,16.70
2018-06-12T10:43:23.755Z,16.50
2018-06-12T10:45:52.133Z,16.40
2018-06-12T10:48:20.406Z,16.50
2018-06-12T10:50:48.706Z,16.20
2018-06-12T10:53:16.996Z,16.20
2018-06-12T10:55:45.273Z,16.10
2018-06-12T10:58:13.529Z,16.30
2018-06-12T11:00:41.860Z,16.10
2018-06-12T11:03:10.183Z,16.10
2018-06-12T11:05:38.436Z,16.20
2018-06-12T11:08:06.730Z,16.20
2018-06-12T11:10:34.983Z,16.40
2018-06-12T11:13:03.786Z,16.70
2018-06-12T11:18:00.040Z,16.80
2018-06-12T11:20:28.283Z,16.80
2018-06-12T11:22:56.554Z,16.90
2018-06-12T11:25:24.866Z,17.00
2018-06-12T11:27:53.158Z,17.00
2018-06-12T11:30:21.450Z,16.90
2018-06-12T11:32:49.753Z,17.00
2018-06-12T11:35:18.031Z,16.90
2018-06-12T11:37:46.277Z,17.00
2018-06-12T11:42:42.522Z,16.80
2018-06-12T11:47:38.730Z,16.80
2018-06-12T11:50:07.023Z,16.90
2018-06-12T11:57:31.348Z,16.80
2018-06-12T12:04:55.584Z,16.30
2018-06-12T12:07:23.882Z,16.20
2018-06-12T12:09:52.168Z,16.20
2018-06-12T12:12:20.495Z,16.30
2018-06-12T12:17:16.836Z,16.20
2018-06-12T12:19:45.129Z,16.30
2018-06-12T12:24:41.402Z,16.50
2018-06-12T12:27:09.726Z,16.50
2018-06-12T12:29:37.991Z,16.50
2018-06-12T12:32:06.282Z,16.40
2018-06-12T12:34:34.559Z,16.60
2018-06-12T12:37:02.806Z,16.50
2018-06-12T12:39:31.082Z,16.50
2018-06-12T12:41:59.367Z,16.20
2018-06-12T12:44:27.647Z,16.20
2018-06-12T12:46:55.901Z,16.20
2018-06-12T12:49:24.269Z,16.10
2018-06-12T12:51:52.497Z,16.20
2018-06-12T12:54:20.816Z,16.10
2018-06-12T12:56:49.090Z,16.10
2018-06-12T12:59:17.369Z,16.00
2018-06-12T13:01:45.675Z,16.20
2018-06-12T13:04:13.948Z,16.00
2018-06-12T13:06:42.279Z,15.90
2018-06-12T13:11:38.570Z,15.90
2018-06-12T13:14:06.847Z,15.90
2018-06-12T13:16:35.109Z,16.10
2018-06-12T13:19:03.446Z,16.10
2018-06-12T13:21:31.788Z,16.30
2018-06-12T13:24:00.039Z,16.20
2018-06-12T13:26:28.448Z,16.10
2018-06-12T13:28:56.630Z,16.30
2018-06-12T13:31:24.790Z,16.10
2018-06-12T13:33:53.049Z,16.20
2018-06-12T13:36:21.179Z,16.00
2018-06-12T13:38:51.458Z,16.00
2018-06-12T13:41:19.637Z,16.00
2018-06-12T13:43:47.829Z,16.10
2018-06-12T13:46:15.973Z,16.30
2018-06-12T13:48:44.202Z,16.10
2018-06-12T13:51:12.363Z,16.00
2018-06-12T13:53:40.537Z,16.00
2018-06-12T13:56:08.694Z,15.90
2018-06-12T13:58:36.942Z,15.90
2018-06-12T14:01:05.145Z,15.90
2018-06-12T14:03:33.391Z,16.00
2018-06-12T14:06:01.598Z,16.00
2018-06-12T14:08:29.854Z,15.80
2018-06-12T14:10:58.052Z,15.80
2018-06-12T14:13:26.318Z,15.80
2018-06-12T14:15:54.454Z,15.80
2018-06-12T14:18:22.666Z,15.90
2018-06-12T14:20:50.866Z,15.80
2018-06-12T14:25:47.059Z,15.70
2018-06-12T14:28:15.300Z,15.80
2018-06-12T14:30:43.438Z,16.00
2018-06-12T14:33:12.099Z,15.90
2018-06-12T14:35:40.318Z,16.00
2018-06-12T14:38:08.534Z,15.80
2018-06-12T14:40:36.800Z,15.80
2018-06-12T14:43:04.891Z,15.90
2018-06-12T14:45:33.077Z,16.10
2018-06-12T14:48:01.261Z,16.20
2018-06-12T14:50:29.457Z,16.10
2018-06-12T14:52:57.633Z,16.00
2018-06-12T14:55:25.815Z,15.80
2018-06-12T14:57:54.048Z,15.70
2018-06-12T15:00:22.263Z,15.80
2018-06-12T15:02:50.411Z,15.80
2018-06-12T15:05:18.629Z,15.60
2018-06-12T15:07:46.806Z,15.80
2018-06-12T15:10:15.016Z,15.60
2018-06-12T15:12:43.256Z,15.60
2018-06-12T15:15:11.395Z,15.60
2018-06-12T15:17:39.668Z,15.60
2018-06-12T15:20:07.944Z,15.80
2018-06-12T15:22:36.216Z,15.50
2018-06-12T15:25:04.533Z,15.40
2018-06-12T15:27:32.869Z,15.30
2018-06-12T15:30:01.113Z,15.30
2018-06-12T15:32:29.298Z,15.30
2018-06-12T15:34:57.536Z,15.30
2018-06-12T15:39:53.721Z,15.30
2018-06-12T15:42:21.969Z,15.30
2018-06-12T15:44:50.247Z,15.40
2018-06-12T15:49:46.342Z,15.60
2018-06-12T15:52:14.550Z,15.50
2018-06-12T15:57:10.697Z,15.30
2018-06-12T16:02:07.158Z,15.30
2018-06-12T16:04:35.419Z,15.30
2018-06-12T16:07:03.618Z,15.30
2018-06-12T16:09:31.866Z,15.40
2018-06-12T16:12:00.071Z,15.50
2018-06-12T16:14:28.283Z,15.60
2018-06-12T16:16:56.504Z,16.00
2018-06-12T16:19:24.702Z,16.00
2018-06-12T16:21:52.879Z,16.10
2018-06-12T16:24:21.089Z,16.00
2018-06-12T16:26:49.310Z,16.00
2018-06-12T16:29:17.578Z,15.90
2018-06-12T16:31:45.787Z,15.80
2018-06-12T16:34:14.014Z,15.70
2018-06-12T16:36:42.216Z,15.90
2018-06-12T16:39:10.411Z,15.80
2018-06-12T16:41:38.586Z,15.70
2018-06-12T16:44:06.809Z,15.60
2018-06-12T16:46:35.018Z,15.70
2018-06-12T16:49:03.344Z,16.10
2018-06-12T16:51:31.579Z,16.30
2018-06-12T16:53:59.865Z,16.40
2018-06-12T16:56:28.128Z,16.30
2018-06-12T17:01:24.381Z,16.10
2018-06-12T17:03:52.678Z,16.00
2018-06-12T17:06:20.990Z,16.00
2018-06-12T17:11:17.271Z,16.00
2018-06-12T17:13:45.478Z,15.80
2018-06-12T17:16:13.711Z,15.80
2018-06-12T17:18:41.983Z,15.70
2018-06-12T17:21:10.300Z,15.70
2018-06-12T17:23:38.561Z,15.80
2018-06-12T17:26:06.823Z,15.90
2018-06-12T17:28:35.126Z,15.90
2018-06-12T17:31:03.403Z,16.00
2018-06-12T17:33:31.638Z,16.10
2018-06-12T17:35:59.898Z,16.10
2018-06-12T17:38:28.119Z,15.70
2018-06-12T17:40:56.349Z,15.60
2018-06-12T17:45:52.443Z,16.10
2018-06-12T17:48:20.604Z,16.10
2018-06-12T17:50:48.770Z,16.00
2018-06-12T17:53:16.953Z,16.00
2018-06-12T17:55:45.130Z,16.10
2018-06-12T17:58:13.394Z,16.20
2018-06-12T18:00:41.571Z,15.90
2018-06-12T18:03:09.788Z,15.80
2018-06-12T18:05:37.913Z,15.70
2018-06-12T18:08:06.084Z,15.90
2018-06-12T18:10:34.246Z,16.00
2018-06-12T18:13:02.435Z,16.10
2018-06-12T18:15:30.621Z,16.10
2018-06-12T18:17:58.794Z,16.20
2018-06-12T18:20:27.012Z,16.10
2018-06-12T18:22:55.212Z,16.00
2018-06-12T18:25:23.455Z,15.80
2018-06-12T18:27:51.646Z,15.80
2018-06-12T18:30:19.840Z,15.50
2018-06-12T18:32:48.047Z,15.50
2018-06-12T18:35:16.267Z,15.70
2018-06-12T18:37:44.455Z,15.90
2018-06-12T18:40:12.694Z,15.60
2018-06-12T18:42:40.901Z,15.40
2018-06-12T18:45:09.195Z,15.30
2018-06-12T18:47:37.381Z,15.30
2018-06-12T18:50:05.576Z,15.40
2018-06-12T18:52:33.742Z,15.30
2018-06-12T18:55:01.926Z,15.20
2018-06-12T18:57:30.139Z,15.50
2018-06-12T18:59:58.311Z,15.50
2018-06-12T19:02:26.548Z,15.40
2018-06-12T19:04:54.718Z,15.40
2018-06-12T19:07:22.959Z,15.60
2018-06-12T19:12:19.113Z,15.50
2018-06-12T19:14:47.918Z,15.40
2018-06-12T19:17:16.144Z,15.20
2018-06-12T19:19:44.347Z,15.20
2018-06-12T19:24:40.825Z,15.10
2018-06-12T19:27:09.011Z,15.00
2018-06-12T19:29:37.214Z,15.00
2018-06-12T19:32:05.402Z,15.00
2018-06-12T19:34:33.586Z,15.00
2018-06-12T19:37:01.750Z,15.30
2018-06-12T19:39:29.974Z,15.20
2018-06-12T19:41:58.189Z,15.20
2018-06-12T19:44:26.393Z,15.30
2018-06-12T19:46:54.552Z,15.30
2018-06-12T19:49:22.742Z,15.20
2018-06-12T19:51:50.921Z,15.10
2018-06-12T19:56:47.049Z,15.30
2018-06-12T20:01:43.193Z,15.30
2018-06-12T20:06:39.321Z,15.20
2018-06-12T20:09:08.507Z,15.20
2018-06-12T20:11:36.689Z,15.30
2018-06-12T20:14:04.916Z,15.20
2018-06-12T20:16:33.090Z,15.00
2018-06-12T20:19:01.258Z,15.00
2018-06-12T20:21:29.427Z,15.00
2018-06-12T20:23:57.602Z,14.90
2018-06-12T20:26:25.814Z,15.10
2018-06-12T20:28:54.025Z,15.10
2018-06-12T20:31:22.197Z,15.10
2018-06-12T20:33:50.409Z,14.80
2018-06-12T20:36:18.577Z,14.90
2018-06-12T20:41:14.768Z,15.00
2018-06-12T20:43:42.968Z,15.10
2018-06-12T20:46:11.163Z,15.00
2018-06-12T20:48:39.326Z,15.10
2018-06-12T20:53:35.535Z,15.10
2018-06-12T20:56:03.776Z,15.10
2018-06-12T20:58:32.036Z,15.10
2018-06-12T21:03:34.933Z,14.80
2018-06-12T21:08:31.271Z,14.90
2018-06-12T21:13:27.594Z,14.90
2018-06-12T21:15:55.910Z,14.70
2018-06-12T21:18:24.194Z,14.80
2018-06-12T21:20:52.466Z,14.70
2018-06-12T21:23:20.734Z,14.80
2018-06-12T21:25:49.039Z,14.70
2018-06-12T21:28:17.354Z,14.70
2018-06-12T21:30:45.675Z,14.70
2018-06-12T21:33:13.953Z,14.70
2018-06-12T21:35:42.270Z,14.60
2018-06-12T21:38:10.547Z,14.60
2018-06-12T21:40:39.411Z,14.50
2018-06-12T21:43:07.711Z,14.50
2018-06-12T21:45:35.990Z,14.60
2018-06-12T21:48:04.291Z,14.70
2018-06-12T21:50:32.590Z,14.70
2018-06-12T21:53:00.847Z,14.60
2018-06-12T21:55:29.140Z,14.70
2018-06-12T22:00:30.990Z,14.90
2018-06-12T22:02:59.618Z,15.00
2018-06-12T22:05:27.857Z,14.80
2018-06-12T22:07:56.111Z,14.70
2018-06-12T22:10:24.355Z,14.70
2018-06-12T22:12:52.606Z,14.70
2018-06-12T22:15:20.899Z,14.70
2018-06-12T22:17:50.316Z,14.70
2018-06-12T22:20:18.575Z,14.70
2018-06-12T22:22:46.880Z,14.60
2018-06-12T22:25:15.114Z,14.70
2018-06-12T22:30:11.373Z,14.70
2018-06-12T22:32:39.639Z,14.70
2018-06-12T22:37:35.962Z,14.50
2018-06-12T22:40:04.259Z,14.50
2018-06-12T22:42:32.514Z,14.60
2018-06-12T22:45:00.779Z,14.50
2018-06-12T22:47:29.049Z,14.60
2018-06-12T22:49:57.325Z,14.60
2018-06-12T22:52:25.594Z,14.60
2018-06-12T22:54:53.887Z,14.60
2018-06-12T22:57:22.118Z,14.60
2018-06-12T22:59:50.374Z,14.70
2018-06-12T23:04:46.602Z,14.60
2018-06-12T23:07:14.877Z,14.50
2018-06-12T23:09:43.065Z,14.60
2018-06-12T23:14:39.142Z,14.50
2018-06-12T23:17:07.464Z,14.50
2018-06-12T23:19:46.809Z,14.40
2018-06-12T23:22:14.982Z,14.50
2018-06-12T23:24:43.146Z,14.70
2018-06-12T23:27:11.374Z,14.80
2018-06-12T23:29:39.510Z,14.70
2018-06-12T23:32:07.676Z,14.50
2018-06-12T23:34:35.841Z,14.50
2018-06-12T23:37:04.027Z,14.30
2018-06-12T23:39:32.212Z,14.20
2018-06-12T23:42:00.418Z,14.10
2018-06-12T23:44:28.562Z,14.10
2018-06-12T23:46:56.730Z,14.00
2018-06-12T23:49:24.881Z,14.10
2018-06-12T23:51:53.061Z,14.20
2018-06-12T23:54:21.234Z,14.00
2018-06-12T23:56:49.397Z,14.10
2018-06-12T23:59:17.573Z,14.10
